Tropical Cyclones
[Index]
Main Index Home Page Stock Weather Photos Extreme Storms Discussion Storm News and Storm Chasing Reports Tropical Cyclones / Hurricanes / Typhoons Weather Data and Links Wild Fires / Bushfires Weather Observation Techniques Weather Picture Catalogue Tornado Pictures and Reports Stock Video Footage and DVDs for sale
Season 2007-2008 Tropical Cyclone ELNUS Track Map
Season 2007-2008 Summaries (Operational Data): [AU] [SIO] [SPAC] [SH]
<<- Previous TC | 2007-2008 Season | Next TC ->>

click for intensity scale information  Lat/long Grid: Show Hide

 Date Labels: Show Hide

Operational Tropical Cyclone Data : JTWC Advisories

Name: ELNUS
Number: 0809

30 Dec 2007 12:00 UTC to 05 Jan 2008 12:00 UTC

    date/time    lat    long     hPa   cat  kts
2007-12-30 12   18.4    41.4    1002         25          
2007-12-31 00   18.3    42.0    1000         25          
2007-12-31 06   18.2    41.1     999         30          
2007-12-31 12   18.1    41.1     997         30          
2007-12-31 18   18.8    41.3     997         30          
2008-01-01 00   19.1    41.0     995    1    35          
2008-01-01 06   18.9    40.9     994    1    35          
2008-01-01 12   19.9    40.3     994    1    35          
2008-01-01 18   19.9    39.9     994    1    35          
2008-01-02 00   19.9    39.9     994    1    35          
2008-01-02 06   19.9    39.9     997         30          
2008-01-02 12   20.2    40.3     997         30          
2008-01-02 18   21.0    40.4     998         30          
2008-01-03 00   21.5    40.4     998         30          
2008-01-03 06   22.5    40.8     998         30          
2008-01-03 12   23.2    41.6     999         25          
2008-01-03 18   25.0    42.4    1000         25          
2008-01-04 00   25.8    43.0    1000         25          
2008-01-04 06   26.0    42.1    1000         20          
2008-01-04 12   26.3    42.6    1000         20          
2008-01-04 18   26.8    42.8    1000         20          
2008-01-05 00   26.7    42.7    1000         25          
2008-01-05 06   26.7    43.0     999         25          
2008-01-05 12   26.7    43.5     999         25          
Winds are 10-min average.

Tropical cyclone tracks developed by Michael Bath using operational warnings and advisories and Google Maps.


[Australian Severe Weather index] [Copyright Notice] [Email Contacts] [Search This Site] [Privacy Policy]
Document: tropical_cyclone_elnus.htm Updated: 2 May 2017